createdAt,value
2018-06-24T00:02:00.642Z,7.70
2018-06-24T00:04:29.902Z,7.43
2018-06-24T00:06:58.835Z,6.80
2018-06-24T00:09:28.367Z,9.90
2018-06-24T00:11:57.299Z,7.37
2018-06-24T00:14:28.391Z,9.60
2018-06-24T00:16:59.240Z,6.87
2018-06-24T00:19:28.140Z,13.20
2018-06-24T00:21:57.059Z,8.10
2018-06-24T00:24:26.322Z,8.33
2018-06-24T00:26:55.231Z,7.43
2018-06-24T00:29:25.787Z,13.33
2018-06-24T00:31:54.724Z,6.30
2018-06-24T00:34:24.032Z,7.97
2018-06-24T00:36:52.963Z,7.97
2018-06-24T00:39:23.315Z,9.00
2018-06-24T00:41:53.775Z,8.37
2018-06-24T00:44:22.804Z,9.60
2018-06-24T00:46:51.939Z,11.23
2018-06-24T00:49:28.713Z,8.30
2018-06-24T00:51:57.582Z,7.90
2018-06-24T00:54:28.386Z,13.20
2018-06-24T00:56:57.193Z,10.53
2018-06-24T00:59:39.735Z,10.27
2018-06-24T01:02:08.895Z,10.37
2018-06-24T01:04:37.945Z,11.60
2018-06-24T01:07:06.909Z,11.60
2018-06-24T01:09:36.384Z,7.57
2018-06-24T01:12:05.375Z,19.30
2018-06-24T01:14:35.456Z,12.13
2018-06-24T01:17:06.759Z,8.33
2018-06-24T01:19:35.576Z,7.17
2018-06-24T01:22:04.375Z,7.00
2018-06-24T01:24:33.617Z,7.00
2018-06-24T01:27:04.131Z,12.20
2018-06-24T01:29:34.744Z,8.50
2018-06-24T01:32:03.679Z,10.13
2018-06-24T01:34:32.724Z,7.17
2018-06-24T01:37:01.628Z,9.77
2018-06-24T01:39:32.288Z,7.93
2018-06-24T01:42:02.626Z,11.20
2018-06-24T01:44:31.576Z,10.33
2018-06-24T01:47:00.519Z,10.10
2018-06-24T01:49:31.040Z,12.10
2018-06-24T01:51:59.966Z,13.30
2018-06-24T01:54:30.435Z,8.40
2018-06-24T01:56:59.408Z,11.37
2018-06-24T01:59:37.044Z,13.27
2018-06-24T02:02:05.926Z,10.90
2018-06-24T02:04:34.606Z,8.40
2018-06-24T02:07:04.087Z,9.73
2018-06-24T02:09:32.955Z,9.80
2018-06-24T02:12:03.211Z,9.17
2018-06-24T02:14:33.759Z,10.23
2018-06-24T02:17:04.243Z,9.13
2018-06-24T02:19:33.274Z,12.13
2018-06-24T02:22:02.184Z,10.33
2018-06-24T02:24:32.723Z,7.80
2018-06-24T02:27:01.670Z,8.70
2018-06-24T02:29:31.869Z,9.77
2018-06-24T02:32:00.539Z,13.23
2018-06-24T02:34:29.726Z,7.50
2018-06-24T02:36:58.979Z,10.00
2018-06-24T02:39:29.015Z,11.67
2018-06-24T02:41:58.197Z,7.90
2018-06-24T02:44:27.086Z,9.73
2018-06-24T02:46:55.868Z,10.97
2018-06-24T02:49:32.665Z,9.10
2018-06-24T02:52:01.577Z,9.30
2018-06-24T02:54:32.460Z,10.93
2018-06-24T02:57:01.440Z,11.87
2018-06-24T02:59:40.099Z,8.53
2018-06-24T03:02:09.335Z,10.10
2018-06-24T03:04:38.258Z,13.90
2018-06-24T03:07:07.328Z,9.93
2018-06-24T03:09:36.314Z,9.00
2018-06-24T03:12:06.858Z,8.67
2018-06-24T03:14:37.077Z,8.43
2018-06-24T03:17:07.815Z,9.97
2018-06-24T03:19:36.615Z,8.73
2018-06-24T03:22:06.758Z,10.47
2018-06-24T03:24:35.698Z,11.30
2018-06-24T03:27:04.900Z,7.23
2018-06-24T03:29:35.044Z,11.23
2018-06-24T03:32:04.069Z,8.37
2018-06-24T03:34:33.016Z,18.57
2018-06-24T03:37:02.211Z,9.23
2018-06-24T03:39:32.710Z,9.63
2018-06-24T03:42:01.556Z,8.63
2018-06-24T03:44:30.465Z,10.90
2018-06-24T03:47:00.749Z,9.70
2018-06-24T03:49:35.274Z,13.53
2018-06-24T03:52:04.399Z,12.47
2018-06-24T03:54:34.969Z,8.60
2018-06-24T03:57:04.203Z,10.43
2018-06-24T03:59:42.956Z,10.80
2018-06-24T04:02:12.327Z,9.60
2018-06-24T04:04:41.208Z,11.03
2018-06-24T04:07:10.554Z,7.80
2018-06-24T04:09:39.521Z,8.77
2018-06-24T04:12:09.763Z,10.20
2018-06-24T04:14:40.492Z,6.57
2018-06-24T04:17:11.582Z,8.90
2018-06-24T04:19:41.987Z,8.73
2018-06-24T04:22:10.905Z,8.43
2018-06-24T04:26:09.133Z,12.47
2018-06-24T04:28:46.287Z,8.87
2018-06-24T04:31:15.880Z,9.80
2018-06-24T04:33:44.912Z,8.07
2018-06-24T04:36:13.819Z,14.77
2018-06-24T04:38:44.402Z,8.20
2018-06-24T04:41:13.283Z,8.07
2018-06-24T04:43:42.462Z,8.17
2018-06-24T04:46:11.392Z,11.03
2018-06-24T04:48:40.322Z,11.20
2018-06-24T04:51:10.736Z,8.80
2018-06-24T04:53:39.764Z,8.57
2018-06-24T04:56:10.479Z,10.50
2018-06-24T04:58:39.374Z,10.70
2018-06-24T05:01:09.618Z,9.60
2018-06-24T05:03:38.734Z,11.00
2018-06-24T05:06:07.651Z,10.57
2018-06-24T05:08:36.451Z,8.90
2018-06-24T05:11:07.275Z,10.27
2018-06-24T05:13:36.507Z,8.97
2018-06-24T05:16:07.349Z,11.53
2018-06-24T05:18:37.971Z,9.37
2018-06-24T05:21:07.027Z,9.07
2018-06-24T05:23:36.064Z,11.40
2018-06-24T05:26:04.836Z,10.57
2018-06-24T05:28:33.727Z,9.13
2018-06-24T05:31:04.027Z,11.20
2018-06-24T05:33:33.021Z,9.93
2018-06-24T05:36:01.908Z,7.97
2018-06-24T05:38:32.168Z,9.40
2018-06-24T05:41:00.855Z,13.40
2018-06-24T05:43:29.888Z,13.10
2018-06-24T05:45:58.805Z,8.70
2018-06-24T05:48:27.870Z,8.87
2018-06-24T05:50:58.273Z,8.43
2018-06-24T05:53:27.166Z,7.50
2018-06-24T05:55:58.064Z,7.40
2018-06-24T05:58:27.045Z,10.10
2018-06-24T06:01:05.724Z,8.13
2018-06-24T06:03:34.630Z,6.73
2018-06-24T06:06:03.565Z,11.10
2018-06-24T06:08:32.561Z,8.60
2018-06-24T06:11:02.889Z,9.20
2018-06-24T06:13:31.855Z,8.90
2018-06-24T06:16:02.567Z,8.07
2018-06-24T06:18:31.551Z,7.30
2018-06-24T06:21:00.539Z,6.93
2018-06-24T06:23:29.496Z,6.00
2018-06-24T06:25:58.743Z,6.20
2018-06-24T06:28:27.824Z,5.73
2018-06-24T06:30:57.865Z,5.30
2018-06-24T06:33:27.198Z,11.57
2018-06-24T06:35:56.145Z,6.33
2018-06-24T06:38:26.648Z,9.40
2018-06-24T06:40:55.576Z,5.90
2018-06-24T06:43:24.491Z,4.97
2018-06-24T06:45:53.582Z,6.10
2018-06-24T06:48:22.615Z,6.30
2018-06-24T06:50:53.362Z,8.23
2018-06-24T06:53:22.386Z,4.37
2018-06-24T06:55:52.955Z,4.00
2018-06-24T06:58:21.972Z,5.10
2018-06-24T07:01:01.340Z,6.30
2018-06-24T07:03:30.454Z,5.93
2018-06-24T07:05:59.288Z,7.10
2018-06-24T07:08:28.700Z,3.90
2018-06-24T07:10:59.371Z,4.97
2018-06-24T07:13:29.532Z,6.50
2018-06-24T07:16:00.082Z,5.73
2018-06-24T07:18:28.955Z,4.93
2018-06-24T07:20:58.091Z,9.13
2018-06-24T07:23:27.980Z,8.67
2018-06-24T07:25:57.274Z,7.07
2018-06-24T07:28:26.287Z,5.03
2018-06-24T07:30:56.604Z,6.10
2018-06-24T07:33:27.699Z,4.20
2018-06-24T07:35:56.700Z,5.77
2018-06-24T07:38:26.975Z,4.93
2018-06-24T07:40:55.838Z,5.50
2018-06-24T07:43:24.987Z,6.00
2018-06-24T07:45:54.476Z,5.00
2018-06-24T07:48:23.383Z,6.97
2018-06-24T07:50:53.880Z,4.50
2018-06-24T07:53:22.896Z,5.07
2018-06-24T07:55:53.566Z,5.00
2018-06-24T07:58:22.465Z,6.50
2018-06-24T08:00:59.399Z,3.33
2018-06-24T08:03:30.116Z,3.93
2018-06-24T08:05:59.123Z,6.93
2018-06-24T08:08:28.101Z,6.43
2018-06-24T08:10:58.447Z,3.83
2018-06-24T08:13:31.896Z,8.20
2018-06-24T08:16:09.673Z,7.10
2018-06-24T08:18:39.605Z,5.47
2018-06-24T08:21:09.057Z,3.70
2018-06-24T08:23:38.536Z,3.80
2018-06-24T08:26:07.336Z,3.60
2018-06-24T08:28:36.388Z,3.67
2018-06-24T08:31:08.379Z,5.77
2018-06-24T08:33:37.508Z,5.17
2018-06-24T08:36:06.416Z,3.83
2018-06-24T08:38:36.231Z,6.13
2018-06-24T08:41:05.204Z,2.80
2018-06-24T08:43:34.128Z,2.97
2018-06-24T08:46:03.191Z,11.40
2018-06-24T08:48:32.229Z,6.57
2018-06-24T08:51:02.468Z,5.63
2018-06-24T08:53:31.807Z,3.10
2018-06-24T08:56:02.073Z,4.30
2018-06-24T08:58:30.984Z,9.93
2018-06-24T09:01:01.760Z,3.83
2018-06-24T09:03:32.135Z,3.33
2018-06-24T09:06:01.200Z,3.40
2018-06-24T09:08:31.711Z,3.40
2018-06-24T09:11:02.652Z,3.60
2018-06-24T09:13:31.628Z,4.20
2018-06-24T09:16:02.219Z,7.83
2018-06-24T09:18:32.706Z,3.13
2018-06-24T09:21:01.807Z,3.17
2018-06-24T09:23:30.916Z,3.57
2018-06-24T09:26:00.140Z,4.27
2018-06-24T09:28:29.110Z,2.87
2018-06-24T09:30:59.644Z,2.93
2018-06-24T09:33:28.541Z,5.23
2018-06-24T09:35:57.886Z,2.40
2018-06-24T09:38:28.524Z,3.67
2018-06-24T09:40:57.701Z,2.97
2018-06-24T09:43:26.745Z,3.50
2018-06-24T09:45:55.692Z,3.53
2018-06-24T09:48:24.696Z,4.00
2018-06-24T09:50:54.983Z,3.47
2018-06-24T09:53:23.903Z,16.90
2018-06-24T09:55:54.412Z,11.93
2018-06-24T09:58:23.121Z,10.97
2018-06-24T10:00:57.785Z,3.27
2018-06-24T10:03:28.618Z,7.10
2018-06-24T10:05:58.595Z,4.27
2018-06-24T10:08:27.519Z,5.63
2018-06-24T10:10:58.107Z,3.83
2018-06-24T10:13:27.012Z,2.97
2018-06-24T10:15:57.627Z,4.30
2018-06-24T10:18:28.429Z,4.37
2018-06-24T10:20:57.707Z,6.53
2018-06-24T10:23:26.827Z,2.60
2018-06-24T10:25:55.821Z,3.00
2018-06-24T10:28:24.735Z,3.93
2018-06-24T10:30:53.751Z,4.60
2018-06-24T10:33:22.702Z,2.17
2018-06-24T10:35:52.310Z,2.87
2018-06-24T10:38:22.676Z,2.80
2018-06-24T10:40:51.716Z,3.30
2018-06-24T10:43:20.651Z,4.07
2018-06-24T10:45:49.715Z,2.57
2018-06-24T10:48:18.643Z,2.47
2018-06-24T10:50:49.380Z,1.90
2018-06-24T10:53:18.292Z,2.23
2018-06-24T10:55:48.812Z,2.10
2018-06-24T10:58:17.762Z,2.40
2018-06-24T11:03:24.952Z,4.13
2018-06-24T11:05:53.973Z,3.27
2018-06-24T11:08:30.491Z,2.60
2018-06-24T11:11:01.000Z,2.53
2018-06-24T11:13:29.907Z,4.33
2018-06-24T11:16:00.424Z,2.53
2018-06-24T11:18:31.119Z,4.53
2018-06-24T11:21:00.152Z,6.40
2018-06-24T11:23:29.334Z,2.03
2018-06-24T11:25:58.388Z,2.90
2018-06-24T11:28:27.320Z,2.80
2018-06-24T11:30:56.358Z,3.13
2018-06-24T11:33:25.234Z,2.90
2018-06-24T11:35:54.047Z,11.30
2018-06-24T11:38:24.873Z,2.57
2018-06-24T11:40:54.227Z,3.83
2018-06-24T11:43:23.250Z,1.77
2018-06-24T11:45:52.220Z,3.97
2018-06-24T11:48:21.297Z,2.53
2018-06-24T11:50:52.595Z,2.30
2018-06-24T11:53:21.878Z,3.40
2018-06-24T11:55:52.719Z,3.40
2018-06-24T11:58:22.233Z,2.27
2018-06-24T12:00:52.581Z,2.50
2018-06-24T12:03:23.544Z,2.50
2018-06-24T12:05:52.671Z,6.53
2018-06-24T12:08:21.901Z,2.83
2018-06-24T12:10:52.689Z,2.27
2018-06-24T12:13:21.664Z,2.77
2018-06-24T12:15:52.169Z,2.53
2018-06-24T12:18:22.950Z,3.27
2018-06-24T12:20:51.844Z,2.50
2018-06-24T12:23:20.920Z,2.57
2018-06-24T12:25:49.967Z,2.43
2018-06-24T12:28:19.359Z,4.30
2018-06-24T12:30:48.471Z,3.50
2018-06-24T12:33:17.322Z,1.93
2018-06-24T12:35:46.448Z,2.43
2018-06-24T12:38:16.604Z,4.93
2018-06-24T12:40:45.515Z,2.10
2018-06-24T12:43:14.428Z,2.83
2018-06-24T12:45:43.454Z,3.47
2018-06-24T12:48:12.756Z,2.57
2018-06-24T12:50:44.378Z,4.97
2018-06-24T12:53:13.403Z,2.60
2018-06-24T12:55:43.935Z,2.43
2018-06-24T12:58:14.337Z,1.67
2018-06-24T13:00:46.699Z,3.97
2018-06-24T13:03:16.565Z,5.57
2018-06-24T13:05:45.510Z,2.83
2018-06-24T13:08:14.770Z,2.30
2018-06-24T13:10:45.420Z,3.73
2018-06-24T13:13:14.495Z,3.73
2018-06-24T13:15:45.107Z,3.37
2018-06-24T13:18:18.192Z,1.60
2018-06-24T13:20:47.164Z,1.60
2018-06-24T13:23:16.165Z,2.67
2018-06-24T13:25:45.523Z,2.90
2018-06-24T13:28:14.916Z,2.27
2018-06-24T13:30:44.028Z,2.57
2018-06-24T13:33:13.005Z,2.30
2018-06-24T13:35:41.911Z,2.40
2018-06-24T13:38:12.701Z,2.80
2018-06-24T13:40:41.631Z,2.57
2018-06-24T13:43:10.559Z,2.40
2018-06-24T13:45:39.642Z,1.83
2018-06-24T13:48:08.946Z,3.40
2018-06-24T13:50:39.941Z,2.37
2018-06-24T13:53:08.893Z,2.20
2018-06-24T13:55:39.456Z,1.90
2018-06-24T13:58:08.500Z,4.23
2018-06-24T14:00:39.183Z,3.20
2018-06-24T14:03:09.816Z,2.10
2018-06-24T14:05:38.715Z,2.40
2018-06-24T14:08:09.753Z,2.37
2018-06-24T14:10:45.428Z,2.23
2018-06-24T14:13:14.468Z,2.33
2018-06-24T14:15:45.266Z,2.67
2018-06-24T14:18:15.081Z,3.07
2018-06-24T14:20:45.884Z,2.30
2018-06-24T14:23:14.808Z,2.00
2018-06-24T14:25:43.692Z,2.73
2018-06-24T14:28:12.701Z,3.17
2018-06-24T14:30:41.831Z,2.57
2018-06-24T14:33:11.200Z,3.13
2018-06-24T14:35:40.103Z,3.60
2018-06-24T14:38:10.657Z,2.63
2018-06-24T14:40:39.811Z,4.50
2018-06-24T14:43:08.949Z,4.83
2018-06-24T14:45:37.857Z,3.80
2018-06-24T14:48:06.922Z,2.97
2018-06-24T14:50:37.235Z,3.97
2018-06-24T14:53:09.285Z,2.67
2018-06-24T14:55:39.604Z,3.53
2018-06-24T14:58:08.546Z,3.17
2018-06-24T15:00:38.723Z,3.90
2018-06-24T15:03:10.933Z,2.80
2018-06-24T15:05:39.834Z,3.07
2018-06-24T15:08:08.780Z,3.00
2018-06-24T15:10:45.021Z,3.53
2018-06-24T15:13:13.935Z,6.20
2018-06-24T15:15:44.443Z,2.80
2018-06-24T15:18:13.350Z,4.00
2018-06-24T15:20:43.666Z,3.83
2018-06-24T15:23:12.680Z,5.83
2018-06-24T15:25:41.855Z,3.30
2018-06-24T15:28:10.828Z,4.80
2018-06-24T15:30:40.055Z,9.70
2018-06-24T15:33:08.955Z,3.30
2018-06-24T15:35:38.340Z,3.27
2018-06-24T15:38:08.763Z,3.20
2018-06-24T15:40:37.903Z,3.03
2018-06-24T15:43:06.852Z,2.93
2018-06-24T15:45:36.209Z,4.33
2018-06-24T15:48:05.172Z,3.20
2018-06-24T15:50:35.782Z,3.00
2018-06-24T15:53:04.727Z,4.27
2018-06-24T15:55:35.068Z,2.83
2018-06-24T15:58:03.989Z,6.93
2018-06-24T16:00:34.322Z,4.00
2018-06-24T16:03:05.464Z,5.97
2018-06-24T16:05:34.563Z,4.33
2018-06-24T16:08:03.492Z,4.80
2018-06-24T16:10:33.045Z,3.70
2018-06-24T16:13:03.289Z,3.67
2018-06-24T16:15:38.055Z,4.50
2018-06-24T16:18:06.990Z,5.30
2018-06-24T16:20:37.560Z,4.07
2018-06-24T16:23:06.439Z,4.90
2018-06-24T16:25:35.634Z,6.10
2018-06-24T16:28:04.648Z,5.87
2018-06-24T16:30:33.700Z,5.30
2018-06-24T16:33:02.548Z,13.47
2018-06-24T16:35:32.212Z,5.10
2018-06-24T16:38:02.639Z,4.10
2018-06-24T16:40:31.299Z,6.00
2018-06-24T16:43:00.476Z,4.50
2018-06-24T16:45:29.484Z,5.00
2018-06-24T16:47:58.391Z,5.10
2018-06-24T16:50:28.898Z,4.40
2018-06-24T16:52:57.827Z,3.90
2018-06-24T16:55:28.475Z,3.50
2018-06-24T16:57:57.407Z,7.10
2018-06-24T17:00:27.901Z,5.33
2018-06-24T17:02:58.453Z,3.60
2018-06-24T17:05:27.433Z,4.13
2018-06-24T17:07:56.658Z,5.23
2018-06-24T17:10:25.686Z,4.77
2018-06-24T17:12:56.158Z,4.10
2018-06-24T17:15:25.163Z,4.00
2018-06-24T17:17:55.671Z,4.77
2018-06-24T17:20:26.307Z,4.60
2018-06-24T17:22:55.868Z,3.40
2018-06-24T17:25:25.023Z,8.53
2018-06-24T17:27:54.022Z,3.37
2018-06-24T17:30:22.954Z,3.87
2018-06-24T17:32:52.045Z,3.50
2018-06-24T17:35:20.999Z,3.70
2018-06-24T17:37:52.209Z,4.90
2018-06-24T17:40:21.220Z,4.57
2018-06-24T17:42:50.154Z,3.30
2018-06-24T17:45:19.415Z,5.30
2018-06-24T17:47:50.251Z,4.93
2018-06-24T17:50:20.879Z,5.67
2018-06-24T17:52:50.358Z,3.70
2018-06-24T17:55:20.616Z,3.87
2018-06-24T17:57:49.523Z,3.50
2018-06-24T18:00:24.850Z,4.47
2018-06-24T18:02:55.691Z,3.70
2018-06-24T18:05:24.927Z,3.93
2018-06-24T18:07:53.884Z,3.10
2018-06-24T18:10:23.287Z,3.50
2018-06-24T18:12:54.215Z,3.77
2018-06-24T18:15:24.543Z,3.20
2018-06-24T18:17:54.976Z,3.70
2018-06-24T18:20:26.536Z,6.33
2018-06-24T18:22:55.667Z,3.30
2018-06-24T18:25:24.895Z,3.10
2018-06-24T18:27:53.912Z,3.03
2018-06-24T18:30:22.857Z,4.60
2018-06-24T18:32:51.803Z,8.00
2018-06-24T18:35:21.114Z,3.70
2018-06-24T18:37:52.244Z,3.63
2018-06-24T18:40:21.263Z,3.40
2018-06-24T18:42:50.307Z,4.60
2018-06-24T18:45:20.489Z,4.20
2018-06-24T18:47:49.261Z,3.00
2018-06-24T18:50:20.404Z,4.77
2018-06-24T18:52:49.342Z,2.93
2018-06-24T18:55:20.497Z,3.23
2018-06-24T18:57:49.392Z,2.93
2018-06-24T19:00:27.744Z,2.87
2018-06-24T19:02:59.306Z,2.90
2018-06-24T19:05:28.474Z,5.90
2018-06-24T19:07:57.444Z,4.27
2018-06-24T19:10:27.707Z,3.50
2018-06-24T19:12:57.943Z,2.73
2018-06-24T19:18:02.950Z,4.53
2018-06-24T19:20:32.292Z,3.40
2018-06-24T19:23:03.855Z,2.90
2018-06-24T19:25:35.058Z,4.70
2018-06-24T19:28:04.483Z,2.70
2018-06-24T19:30:33.475Z,3.83
2018-06-24T19:33:02.501Z,4.50
2018-06-24T19:35:31.540Z,5.37
2018-06-24T19:38:02.520Z,3.43
2018-06-24T19:40:31.439Z,2.77
2018-06-24T19:43:01.709Z,2.47
2018-06-24T19:45:31.664Z,7.80
2018-06-24T19:48:00.711Z,3.73
2018-06-24T19:50:31.067Z,3.30
2018-06-24T19:53:00.072Z,2.47
2018-06-24T19:55:32.340Z,3.87
2018-06-24T19:58:01.379Z,4.10
2018-06-24T20:00:32.876Z,1.90
2018-06-24T20:03:03.619Z,2.30
2018-06-24T20:05:32.562Z,2.67
2018-06-24T20:08:01.547Z,2.00
2018-06-24T20:10:30.479Z,3.33
2018-06-24T20:13:01.658Z,3.40
2018-06-24T20:15:37.983Z,3.60
2018-06-24T20:19:36.395Z,2.40
2018-06-24T20:22:07.091Z,2.47
2018-06-24T20:24:35.995Z,2.47
2018-06-24T20:27:04.916Z,2.53
2018-06-24T20:29:33.979Z,2.67
2018-06-24T20:32:02.791Z,7.00
2018-06-24T20:34:31.663Z,4.70
2018-06-24T20:37:00.575Z,3.57
2018-06-24T20:39:31.403Z,2.77
2018-06-24T20:42:00.355Z,4.93
2018-06-24T20:44:29.284Z,2.30
2018-06-24T20:46:58.306Z,2.00
2018-06-24T20:49:27.199Z,2.23
2018-06-24T20:51:57.896Z,2.53
2018-06-24T20:54:28.973Z,4.80
2018-06-24T20:56:57.961Z,2.93
2018-06-24T20:59:27.388Z,3.23
2018-06-24T21:02:06.499Z,5.80
2018-06-24T21:04:35.174Z,2.60
2018-06-24T21:07:03.943Z,2.30
2018-06-24T21:09:33.384Z,2.50
2018-06-24T21:12:03.926Z,2.80
2018-06-24T21:14:32.848Z,3.57
2018-06-24T21:17:03.341Z,2.57
2018-06-24T21:19:32.283Z,4.60
2018-06-24T21:22:02.691Z,2.13
2018-06-24T21:24:36.403Z,2.03
2018-06-24T21:27:06.278Z,2.90
2018-06-24T21:29:35.216Z,1.90
2018-06-24T21:32:04.136Z,2.70
2018-06-24T21:34:33.274Z,3.37
2018-06-24T21:37:03.656Z,4.43
2018-06-24T21:39:34.452Z,4.20
2018-06-24T21:42:03.590Z,2.60
2018-06-24T21:44:32.459Z,2.80
2018-06-24T21:47:01.469Z,3.07
2018-06-24T21:49:30.487Z,2.13
2018-06-24T21:52:00.727Z,5.13
2018-06-24T21:54:31.447Z,2.53
2018-06-24T21:57:00.471Z,2.03
2018-06-24T21:59:29.451Z,2.30
2018-06-24T22:02:07.242Z,2.83
2018-06-24T22:04:35.920Z,3.13
2018-06-24T22:07:04.806Z,3.17
2018-06-24T22:09:33.724Z,3.73
2018-06-24T22:12:04.560Z,5.43
2018-06-24T22:14:33.484Z,2.83
2018-06-24T22:17:03.891Z,9.20
2018-06-24T22:19:33.720Z,2.77
2018-06-24T22:22:04.410Z,4.37
2018-06-24T22:24:33.324Z,2.53
2018-06-24T22:27:02.781Z,2.53
2018-06-24T22:29:32.007Z,3.07
2018-06-24T22:32:00.915Z,3.73
2018-06-24T22:34:31.303Z,7.30
2018-06-24T22:37:00.217Z,4.37
2018-06-24T22:39:30.395Z,3.70
2018-06-24T22:41:59.316Z,2.90
2018-06-24T22:44:28.351Z,2.80
2018-06-24T22:46:57.271Z,3.37
2018-06-24T22:49:26.767Z,2.27
2018-06-24T22:51:57.263Z,4.67
2018-06-24T22:54:28.097Z,2.10
2018-06-24T22:56:57.018Z,2.70
2018-06-24T22:59:37.760Z,4.57
2018-06-24T23:02:08.235Z,2.27
2018-06-24T23:04:37.195Z,2.63
2018-06-24T23:07:06.108Z,2.23
2018-06-24T23:09:35.168Z,3.90
2018-06-24T23:12:05.698Z,2.40
2018-06-24T23:14:34.712Z,2.60
2018-06-24T23:17:05.127Z,2.90
2018-06-24T23:19:34.188Z,2.40
2018-06-24T23:22:03.106Z,2.87
2018-06-24T23:24:33.843Z,2.43
2018-06-24T23:27:02.756Z,2.70
2018-06-24T23:29:31.763Z,4.20
2018-06-24T23:32:02.132Z,4.00
2018-06-24T23:34:31.171Z,4.30
2018-06-24T23:37:00.083Z,3.77
2018-06-24T23:39:30.416Z,4.47
2018-06-24T23:41:59.529Z,3.47
2018-06-24T23:44:28.548Z,2.33
2018-06-24T23:46:57.458Z,3.17
2018-06-24T23:49:26.679Z,2.60
2018-06-24T23:51:57.283Z,2.70
2018-06-24T23:54:27.936Z,2.40
2018-06-24T23:56:56.804Z,2.20
2018-06-24T23:59:26.222Z,2.27
